createdAt,value
2018-11-27T00:00:26.156Z,4.30
2018-11-27T00:03:05.709Z,4.30
2018-11-27T00:05:35.213Z,4.30
2018-11-27T00:08:03.773Z,4.30
2018-11-27T00:10:33.631Z,4.30
2018-11-27T00:13:02.189Z,4.30
2018-11-27T00:15:30.700Z,4.20
2018-11-27T00:17:59.156Z,4.30
2018-11-27T00:20:27.774Z,4.20
2018-11-27T00:22:56.308Z,4.20
2018-11-27T00:25:24.845Z,4.20
2018-11-27T00:27:53.430Z,4.20
2018-11-27T00:30:22.357Z,4.20
2018-11-27T00:32:50.860Z,4.20
2018-11-27T00:35:20.305Z,4.10
2018-11-27T00:37:48.805Z,4.20
2018-11-27T00:40:19.336Z,4.10
2018-11-27T00:42:47.833Z,4.10
2018-11-27T00:45:17.339Z,4.10
2018-11-27T00:47:46.921Z,4.10
2018-11-27T00:50:18.248Z,4.10
2018-11-27T00:52:46.776Z,4.10
2018-11-27T00:55:16.170Z,4.10
2018-11-27T00:57:45.791Z,4.10
2018-11-27T01:00:18.134Z,4.10
2018-11-27T01:02:46.799Z,4.10
2018-11-27T01:05:16.549Z,4.10
2018-11-27T01:07:45.159Z,4.10
2018-11-27T01:10:18.756Z,4.10
2018-11-27T01:12:47.271Z,4.10
2018-11-27T01:15:16.218Z,4.00
2018-11-27T01:17:48.086Z,4.10
2018-11-27T01:20:19.542Z,4.10
2018-11-27T01:22:48.069Z,4.10
2018-11-27T01:25:16.665Z,4.10
2018-11-27T01:27:45.168Z,4.10
2018-11-27T01:30:15.558Z,4.10
2018-11-27T01:32:44.231Z,4.10
2018-11-27T01:35:20.903Z,4.00
2018-11-27T01:37:50.417Z,4.00
2018-11-27T01:40:23.919Z,4.00
2018-11-27T01:42:53.374Z,4.00
2018-11-27T01:45:22.437Z,4.00
2018-11-27T01:47:51.235Z,4.00
2018-11-27T01:50:20.319Z,3.90
2018-11-27T01:52:49.052Z,4.00
2018-11-27T01:55:18.628Z,4.00
2018-11-27T01:57:47.155Z,4.00
2018-11-27T02:00:24.541Z,3.90
2018-11-27T02:02:53.508Z,3.90
2018-11-27T02:05:22.573Z,3.90
2018-11-27T02:07:51.157Z,3.80
2018-11-27T02:10:19.730Z,3.90
2018-11-27T02:12:49.092Z,3.90
2018-11-27T02:15:18.858Z,3.90
2018-11-27T02:17:47.406Z,3.90
2018-11-27T02:20:15.935Z,3.90
2018-11-27T02:22:44.521Z,3.90
2018-11-27T02:25:16.410Z,3.90
2018-11-27T02:27:44.919Z,4.00
2018-11-27T02:30:18.366Z,3.90
2018-11-27T02:32:46.928Z,3.90
2018-11-27T02:35:19.020Z,4.00
2018-11-27T02:37:48.611Z,3.90
2018-11-27T02:40:17.919Z,3.90
2018-11-27T02:42:46.411Z,3.90
2018-11-27T02:45:16.522Z,3.90
2018-11-27T02:47:45.551Z,3.90
2018-11-27T02:50:15.394Z,3.90
2018-11-27T02:52:44.101Z,3.90
2018-11-27T02:55:14.528Z,3.80
2018-11-27T02:57:43.048Z,3.90
2018-11-27T03:00:12.637Z,3.90
2018-11-27T03:02:41.229Z,3.80
2018-11-27T03:05:11.568Z,3.90
2018-11-27T03:07:40.140Z,3.90
2018-11-27T03:10:11.467Z,3.90
2018-11-27T03:12:40.002Z,3.80
2018-11-27T03:15:11.261Z,3.80
2018-11-27T03:17:39.782Z,3.80
2018-11-27T03:20:10.599Z,3.80
2018-11-27T03:22:39.387Z,3.80
2018-11-27T03:25:17.797Z,3.80
2018-11-27T03:27:47.156Z,3.90
2018-11-27T03:30:16.764Z,3.90
2018-11-27T03:32:45.414Z,3.90
2018-11-27T03:35:15.082Z,3.90
2018-11-27T03:37:43.961Z,3.80
2018-11-27T03:40:22.124Z,3.80
2018-11-27T03:42:50.705Z,3.80
2018-11-27T03:45:19.872Z,3.80
2018-11-27T03:47:48.529Z,3.80
2018-11-27T03:50:18.181Z,3.80
2018-11-27T03:52:46.733Z,3.80
2018-11-27T03:55:15.297Z,3.70
2018-11-27T03:57:43.821Z,3.70
2018-11-27T04:00:17.547Z,3.70
2018-11-27T04:02:48.258Z,3.70
2018-11-27T04:05:16.850Z,3.80
2018-11-27T04:07:45.427Z,3.80
2018-11-27T04:10:16.215Z,3.70
2018-11-27T04:12:44.730Z,3.80
2018-11-27T04:15:13.830Z,3.80
2018-11-27T04:17:42.345Z,3.70
2018-11-27T04:20:11.746Z,3.70
2018-11-27T04:22:40.871Z,3.70
2018-11-27T04:25:11.733Z,3.70
2018-11-27T04:27:40.319Z,3.80
2018-11-27T04:30:18.896Z,3.70
2018-11-27T04:32:47.502Z,3.70
2018-11-27T04:35:22.918Z,3.70
2018-11-27T04:37:51.467Z,3.70
2018-11-27T04:40:21.062Z,3.70
2018-11-27T04:42:49.631Z,3.70
2018-11-27T04:45:22.856Z,3.70
2018-11-27T04:47:51.390Z,3.70
2018-11-27T04:50:20.243Z,3.70
2018-11-27T04:52:48.907Z,3.70
2018-11-27T04:55:19.792Z,3.70
2018-11-27T04:57:47.870Z,3.70
2018-11-27T05:00:32.185Z,3.70
2018-11-27T05:03:00.719Z,3.70
2018-11-27T05:05:29.192Z,3.70
2018-11-27T05:07:57.764Z,3.80
2018-11-27T05:10:26.295Z,3.80
2018-11-27T05:12:54.819Z,3.80
2018-11-27T05:15:25.805Z,3.80
2018-11-27T05:17:59.077Z,3.80
2018-11-27T05:20:27.654Z,3.80
2018-11-27T05:22:56.232Z,3.80
2018-11-27T05:25:24.803Z,3.80
2018-11-27T05:27:55.622Z,3.80
2018-11-27T05:30:26.258Z,3.80
2018-11-27T05:32:54.770Z,3.80
2018-11-27T05:35:26.395Z,3.80
2018-11-27T05:37:54.952Z,3.80
2018-11-27T05:40:24.463Z,3.80
2018-11-27T05:42:55.378Z,3.90
2018-11-27T05:45:24.590Z,3.80
2018-11-27T05:47:53.069Z,3.80
2018-11-27T05:50:21.706Z,3.80
2018-11-27T05:52:50.214Z,3.80
2018-11-27T05:55:18.940Z,3.90
2018-11-27T05:57:48.926Z,3.80
2018-11-27T06:00:18.745Z,3.80
2018-11-27T06:02:48.432Z,3.70
2018-11-27T06:05:18.161Z,3.70
2018-11-27T06:07:46.708Z,3.80
2018-11-27T06:10:17.171Z,3.80
2018-11-27T06:12:45.763Z,3.80
2018-11-27T06:15:16.453Z,3.70
2018-11-27T06:17:45.475Z,3.70
2018-11-27T06:20:16.231Z,3.70
2018-11-27T06:22:44.780Z,3.70
2018-11-27T06:25:16.487Z,3.80
2018-11-27T06:27:45.676Z,3.70
2018-11-27T06:30:16.449Z,3.80
2018-11-27T06:32:44.996Z,3.80
2018-11-27T06:35:21.863Z,3.90
2018-11-27T06:37:50.418Z,3.80
2018-11-27T06:40:20.903Z,3.80
2018-11-27T06:42:50.353Z,3.80
2018-11-27T06:45:19.834Z,3.90
2018-11-27T06:47:49.414Z,3.90
2018-11-27T06:50:19.320Z,3.80
2018-11-27T06:52:47.877Z,3.90
2018-11-27T06:55:17.422Z,3.90
2018-11-27T06:57:45.908Z,3.80
2018-11-27T07:00:16.459Z,3.80
2018-11-27T07:02:45.695Z,3.80
2018-11-27T07:05:14.752Z,3.70
2018-11-27T07:07:43.519Z,3.70
2018-11-27T07:10:19.296Z,3.70
2018-11-27T07:12:48.779Z,3.60
2018-11-27T07:15:18.762Z,3.60
2018-11-27T07:17:47.333Z,3.70
2018-11-27T07:20:15.834Z,3.80
2018-11-27T07:22:44.355Z,3.80
2018-11-27T07:25:14.050Z,3.80
2018-11-27T07:27:44.927Z,3.90
2018-11-27T07:30:15.609Z,3.90
2018-11-27T07:32:44.166Z,3.90
2018-11-27T07:35:13.658Z,3.80
2018-11-27T07:37:42.144Z,3.80
2018-11-27T07:40:13.880Z,3.80
2018-11-27T07:42:42.671Z,3.70
2018-11-27T07:45:16.180Z,3.70
2018-11-27T07:47:44.747Z,3.80
2018-11-27T07:50:13.959Z,3.70
2018-11-27T07:52:42.559Z,3.80
2018-11-27T07:55:13.831Z,3.80
2018-11-27T07:57:42.447Z,3.80
2018-11-27T08:00:16.046Z,3.70
2018-11-27T08:02:45.592Z,3.80
2018-11-27T08:05:15.604Z,3.90
2018-11-27T08:07:46.604Z,3.90
2018-11-27T08:10:18.424Z,3.90
2018-11-27T08:12:47.025Z,3.90
2018-11-27T08:15:19.806Z,4.00
2018-11-27T08:17:48.315Z,4.00
2018-11-27T08:20:20.181Z,3.90
2018-11-27T08:22:48.773Z,3.90
2018-11-27T08:25:17.338Z,3.90
2018-11-27T08:27:45.880Z,4.00
2018-11-27T08:30:18.353Z,4.00
2018-11-27T08:32:46.870Z,3.90
2018-11-27T08:35:20.332Z,4.00
2018-11-27T08:37:49.890Z,4.00
2018-11-27T08:40:19.650Z,4.00
2018-11-27T08:42:48.230Z,3.90
2018-11-27T08:45:18.105Z,3.90
2018-11-27T08:47:47.311Z,3.90
2018-11-27T08:50:17.018Z,3.80
2018-11-27T08:52:47.115Z,3.80
2018-11-27T08:55:17.094Z,3.80
2018-11-27T08:57:46.408Z,3.80
2018-11-27T09:00:18.938Z,3.70
2018-11-27T09:02:47.596Z,3.70
2018-11-27T09:05:16.166Z,3.70
2018-11-27T09:07:45.199Z,3.70
2018-11-27T09:10:16.045Z,3.70
2018-11-27T09:12:44.588Z,3.70
2018-11-27T09:15:15.262Z,3.70
2018-11-27T09:17:49.422Z,3.70
2018-11-27T09:20:17.977Z,3.80
2018-11-27T09:22:46.526Z,3.80
2018-11-27T09:25:15.131Z,3.80
2018-11-27T09:27:43.694Z,3.90
2018-11-27T09:30:17.422Z,3.90
2018-11-27T09:32:45.958Z,3.90
2018-11-27T09:35:14.468Z,3.90
2018-11-27T09:37:43.006Z,3.90
2018-11-27T09:40:13.715Z,3.90
2018-11-27T09:42:42.247Z,3.90
2018-11-27T09:45:18.990Z,3.80
2018-11-27T09:47:48.539Z,4.00
2018-11-27T09:50:17.308Z,3.90
2018-11-27T09:52:45.887Z,3.90
2018-11-27T09:55:17.395Z,3.80
2018-11-27T09:57:45.967Z,3.80
2018-11-27T10:00:19.414Z,3.80
2018-11-27T10:02:47.997Z,3.80
2018-11-27T10:05:16.682Z,3.80
2018-11-27T10:07:45.219Z,3.80
2018-11-27T10:10:15.119Z,3.70
2018-11-27T10:12:43.721Z,3.80
2018-11-27T10:15:18.192Z,3.70
2018-11-27T10:17:47.865Z,3.80
2018-11-27T10:20:17.785Z,3.90
2018-11-27T10:22:46.352Z,3.90
2018-11-27T10:25:14.907Z,3.80
2018-11-27T10:27:43.945Z,3.80
2018-11-27T10:30:13.825Z,3.80
2018-11-27T10:32:42.337Z,3.80
2018-11-27T10:35:16.689Z,3.80
2018-11-27T10:37:45.283Z,3.90
2018-11-27T10:40:13.843Z,3.90
2018-11-27T10:42:42.431Z,3.90
2018-11-27T10:45:13.680Z,3.80
2018-11-27T10:47:42.598Z,3.80
2018-11-27T10:50:12.211Z,3.60
2018-11-27T10:52:42.327Z,3.70
2018-11-27T10:55:13.048Z,3.70
2018-11-27T10:57:41.712Z,3.70
2018-11-27T11:00:20.714Z,3.60
2018-11-27T11:02:54.503Z,3.70
2018-11-27T11:05:24.932Z,3.60
2018-11-27T11:07:53.575Z,3.50
2018-11-27T11:10:22.167Z,3.60
2018-11-27T11:12:57.234Z,3.60
2018-11-27T11:15:25.875Z,3.60
2018-11-27T11:17:54.561Z,3.60
2018-11-27T11:20:23.727Z,3.60
2018-11-27T11:22:52.286Z,3.60
2018-11-27T11:25:22.138Z,3.60
2018-11-27T11:27:52.395Z,3.60
2018-11-27T11:30:21.593Z,3.60
2018-11-27T11:32:50.169Z,3.50
2018-11-27T11:35:18.775Z,3.40
2018-11-27T11:37:47.408Z,3.40
2018-11-27T11:40:19.118Z,3.40
2018-11-27T11:42:48.299Z,3.50
2018-11-27T11:45:16.896Z,3.30
2018-11-27T11:47:45.507Z,3.30
2018-11-27T11:50:17.224Z,3.40
2018-11-27T11:52:47.324Z,3.30
2018-11-27T11:55:16.724Z,3.30
2018-11-27T11:57:45.661Z,3.40
2018-11-27T12:00:21.025Z,3.30
2018-11-27T12:02:49.599Z,3.40
2018-11-27T12:05:18.124Z,3.40
2018-11-27T12:07:46.643Z,3.40
2018-11-27T12:10:16.044Z,3.40
2018-11-27T12:12:45.766Z,3.40
2018-11-27T12:15:18.474Z,3.30
2018-11-27T12:17:47.870Z,3.40
2018-11-27T12:20:18.411Z,3.40
2018-11-27T12:22:49.252Z,3.50
2018-11-27T12:25:18.285Z,3.50
2018-11-27T12:27:46.942Z,3.50
2018-11-27T12:30:16.642Z,3.50
2018-11-27T12:32:45.358Z,3.50
2018-11-27T12:35:14.729Z,3.50
2018-11-27T12:37:43.585Z,3.30
2018-11-27T12:40:20.432Z,3.40
2018-11-27T12:42:49.310Z,3.50
2018-11-27T12:45:19.161Z,3.50
2018-11-27T12:47:47.687Z,3.50
2018-11-27T12:50:18.690Z,3.50
2018-11-27T12:52:47.516Z,3.50
2018-11-27T12:55:18.153Z,3.50
2018-11-27T12:57:46.867Z,3.50
2018-11-27T13:00:19.516Z,3.50
2018-11-27T13:02:48.613Z,3.50
2018-11-27T13:05:22.290Z,3.40
2018-11-27T13:07:52.025Z,3.50
2018-11-27T13:10:20.555Z,3.40
2018-11-27T13:12:49.150Z,3.50
2018-11-27T13:15:18.932Z,3.50
2018-11-27T13:17:48.386Z,3.60
2018-11-27T13:20:17.919Z,3.60
2018-11-27T13:22:46.810Z,3.60
2018-11-27T13:25:22.978Z,3.60
2018-11-27T13:27:52.675Z,3.60
2018-11-27T13:30:23.688Z,3.60
2018-11-27T13:32:59.779Z,3.60
2018-11-27T13:35:28.266Z,3.60
2018-11-27T13:37:56.881Z,3.60
2018-11-27T13:40:25.460Z,3.50
2018-11-27T13:42:54.028Z,3.50
2018-11-27T13:45:22.600Z,3.60
2018-11-27T13:47:51.261Z,3.60
2018-11-27T13:50:19.851Z,3.60
2018-11-27T13:52:48.438Z,3.60
2018-11-27T13:55:21.121Z,3.60
2018-11-27T13:57:49.734Z,3.60
2018-11-27T14:00:19.272Z,3.50
2018-11-27T14:02:49.599Z,3.60
2018-11-27T14:05:20.377Z,3.60
2018-11-27T14:07:49.145Z,3.60
2018-11-27T14:10:17.739Z,3.50
2018-11-27T14:12:46.441Z,3.50
2018-11-27T14:15:16.313Z,3.50
2018-11-27T14:17:44.912Z,3.50
2018-11-27T14:20:13.497Z,3.50
2018-11-27T14:22:43.271Z,3.60
2018-11-27T14:25:13.228Z,3.70
2018-11-27T14:27:41.860Z,3.70
2018-11-27T14:30:14.135Z,3.70
2018-11-27T14:32:42.728Z,3.60
2018-11-27T14:35:11.860Z,3.60
2018-11-27T14:37:40.449Z,3.50
2018-11-27T14:40:11.650Z,3.60
2018-11-27T14:42:40.200Z,3.60
2018-11-27T14:45:13.739Z,3.60
2018-11-27T14:47:42.333Z,3.60
2018-11-27T14:50:12.642Z,3.70
2018-11-27T14:52:41.253Z,3.70
2018-11-27T14:55:13.019Z,3.70
2018-11-27T14:57:41.563Z,3.60
2018-11-27T15:00:13.783Z,3.60
2018-11-27T15:02:42.383Z,3.50
2018-11-27T15:05:15.468Z,3.60
2018-11-27T15:07:44.070Z,3.70
2018-11-27T15:10:13.348Z,3.70
2018-11-27T15:12:41.990Z,3.70
2018-11-27T15:15:12.753Z,3.70
2018-11-27T15:17:41.510Z,3.70
2018-11-27T15:20:16.267Z,3.70
2018-11-27T15:22:44.883Z,3.60
2018-11-27T15:25:13.512Z,3.60
2018-11-27T15:27:42.127Z,3.60
2018-11-27T15:30:16.912Z,3.60
2018-11-27T15:32:45.566Z,3.60
2018-11-27T15:35:14.600Z,3.60
2018-11-27T15:37:43.219Z,3.60
2018-11-27T15:40:22.363Z,3.70
2018-11-27T15:42:51.253Z,3.70
2018-11-27T15:45:21.776Z,3.70
2018-11-27T15:47:50.499Z,3.70
2018-11-27T15:50:19.092Z,3.70
2018-11-27T15:52:47.793Z,3.60
2018-11-27T15:55:19.861Z,3.60
2018-11-27T15:57:50.079Z,3.50
2018-11-27T16:00:19.674Z,3.60
2018-11-27T16:02:48.314Z,3.60
2018-11-27T16:05:17.550Z,3.50
2018-11-27T16:07:46.166Z,3.50
2018-11-27T16:10:15.956Z,3.50
2018-11-27T16:12:44.595Z,3.50
2018-11-27T16:15:14.479Z,3.50
2018-11-27T16:17:43.233Z,3.50
2018-11-27T16:20:13.073Z,3.50
2018-11-27T16:22:42.395Z,3.50
2018-11-27T16:25:12.367Z,3.40
2018-11-27T16:27:40.930Z,3.40
2018-11-27T16:30:13.644Z,3.40
2018-11-27T16:32:42.227Z,3.40
2018-11-27T16:35:11.746Z,3.40
2018-11-27T16:37:40.751Z,3.50
2018-11-27T16:40:11.761Z,3.50
2018-11-27T16:42:40.389Z,3.40
2018-11-27T16:45:22.371Z,3.40
2018-11-27T16:47:51.305Z,3.50
2018-11-27T16:50:20.167Z,3.50
2018-11-27T16:52:49.149Z,3.50
2018-11-27T16:55:18.855Z,3.50
2018-11-27T16:57:47.440Z,3.40
2018-11-27T17:00:19.813Z,3.40
2018-11-27T17:02:50.260Z,3.40
2018-11-27T17:05:17.813Z,3.50
2018-11-27T17:07:46.461Z,3.30
2018-11-27T17:10:16.038Z,3.40
2018-11-27T17:12:45.115Z,3.40
2018-11-27T17:15:15.743Z,3.50
2018-11-27T17:17:44.292Z,3.50
2018-11-27T17:20:32.124Z,3.50
2018-11-27T17:23:02.786Z,3.40
2018-11-27T17:25:31.408Z,3.40
2018-11-27T17:28:04.656Z,3.50
2018-11-27T17:30:42.181Z,3.60
2018-11-27T17:34:15.099Z,3.60
2018-11-27T17:36:43.666Z,3.50
2018-11-27T17:39:12.944Z,3.50
2018-11-27T17:41:41.514Z,3.50
2018-11-27T17:44:12.243Z,3.50
2018-11-27T17:46:40.811Z,3.50
2018-11-27T17:49:09.346Z,3.40
2018-11-27T17:51:37.883Z,3.50
2018-11-27T17:54:11.209Z,3.40
2018-11-27T17:56:39.813Z,3.50
2018-11-27T17:59:08.353Z,3.40
2018-11-27T18:01:37.019Z,3.50
2018-11-27T18:04:06.088Z,3.50
2018-11-27T18:06:34.778Z,3.40
2018-11-27T18:09:08.647Z,3.40
2018-11-27T18:11:37.597Z,3.40
2018-11-27T18:14:06.253Z,3.40
2018-11-27T18:16:34.821Z,3.40
2018-11-27T18:19:03.447Z,3.40
2018-11-27T18:21:32.104Z,3.30
2018-11-27T18:24:00.678Z,3.40
2018-11-27T18:26:29.329Z,3.40
2018-11-27T18:28:57.897Z,3.40
2018-11-27T18:31:26.458Z,3.40
2018-11-27T18:33:55.116Z,3.30
2018-11-27T18:36:25.879Z,3.30
2018-11-27T18:38:52.367Z,3.40
2018-11-27T18:41:20.979Z,3.40
2018-11-27T18:43:49.652Z,3.40
2018-11-27T18:46:18.156Z,3.40
2018-11-27T18:48:46.737Z,3.40
2018-11-27T18:51:15.355Z,3.40
2018-11-27T18:53:43.951Z,3.40
2018-11-27T18:56:12.565Z,3.30
2018-11-27T18:58:41.094Z,3.30
2018-11-27T19:01:09.771Z,3.30
2018-11-27T19:03:38.378Z,3.50
2018-11-27T19:06:06.971Z,3.40
2018-11-27T19:08:35.528Z,3.40
2018-11-27T19:11:04.192Z,3.40
2018-11-27T19:13:32.854Z,3.30
2018-11-27T19:16:01.738Z,3.40
2018-11-27T19:18:30.333Z,3.40
2018-11-27T19:20:58.936Z,3.40
2018-11-27T19:23:27.554Z,3.40
2018-11-27T19:25:56.247Z,3.40
2018-11-27T19:28:24.885Z,3.30
2018-11-27T19:30:53.690Z,3.30
2018-11-27T19:33:22.845Z,3.40
2018-11-27T19:35:51.466Z,3.40
2018-11-27T19:38:20.851Z,3.30
2018-11-27T19:40:49.520Z,3.30
2018-11-27T19:43:18.064Z,3.30
2018-11-27T19:45:46.760Z,3.30
2018-11-27T19:48:16.126Z,3.40
2018-11-27T19:50:44.759Z,3.40
2018-11-27T19:53:14.809Z,3.40
2018-11-27T19:55:43.219Z,3.40
2018-11-27T19:58:11.918Z,3.40
2018-11-27T20:00:40.607Z,3.30
2018-11-27T20:03:10.757Z,3.30
2018-11-27T20:05:39.567Z,3.30
2018-11-27T20:08:11.251Z,3.30
2018-11-27T20:10:39.870Z,3.30
2018-11-27T20:13:08.453Z,3.40
2018-11-27T20:15:37.045Z,3.40
2018-11-27T20:18:11.685Z,3.40
2018-11-27T20:20:40.249Z,3.40
2018-11-27T20:23:09.035Z,3.40
2018-11-27T20:25:37.569Z,3.30
2018-11-27T20:28:07.655Z,3.30
2018-11-27T20:30:37.275Z,3.30
2018-11-27T20:33:06.903Z,3.30
2018-11-27T20:35:35.551Z,3.30
2018-11-27T20:38:06.387Z,3.30
2018-11-27T20:40:35.039Z,3.40
2018-11-27T20:43:03.616Z,3.30
2018-11-27T20:45:32.280Z,3.20
2018-11-27T20:48:09.563Z,3.20
2018-11-27T20:50:38.236Z,3.20
2018-11-27T20:53:06.928Z,3.20
2018-11-27T20:55:35.819Z,3.30
2018-11-27T20:58:05.027Z,3.30
2018-11-27T21:00:36.195Z,3.30
2018-11-27T21:03:05.573Z,3.30
2018-11-27T21:05:34.237Z,3.40
2018-11-27T21:08:02.946Z,3.30
2018-11-27T21:10:31.560Z,3.30
2018-11-27T21:13:00.185Z,3.30
2018-11-27T21:15:28.859Z,3.40
2018-11-27T21:17:57.721Z,3.40
2018-11-27T21:20:26.309Z,3.40
2018-11-27T21:22:54.886Z,3.40
2018-11-27T21:25:24.607Z,3.30
2018-11-27T21:27:59.807Z,3.30
2018-11-27T21:30:28.413Z,3.40
2018-11-27T21:32:57.044Z,3.40
2018-11-27T21:35:25.771Z,3.40
2018-11-27T21:37:54.349Z,3.50
2018-11-27T21:40:22.953Z,3.40
2018-11-27T21:42:51.526Z,3.40
2018-11-27T21:45:21.227Z,3.40
2018-11-27T21:47:50.430Z,3.40
2018-11-27T21:50:24.921Z,3.40
2018-11-27T21:52:53.580Z,3.30
2018-11-27T21:55:22.186Z,3.30
2018-11-27T21:57:50.796Z,3.20
2018-11-27T22:00:26.307Z,3.20
2018-11-27T22:02:55.143Z,3.20
2018-11-27T22:05:23.629Z,3.20
2018-11-27T22:07:52.156Z,3.20
2018-11-27T22:10:22.879Z,3.20
2018-11-27T22:12:53.664Z,3.30
2018-11-27T22:15:38.325Z,3.20
2018-11-27T22:18:12.838Z,3.30
2018-11-27T22:20:41.473Z,3.20
2018-11-27T22:23:10.403Z,3.20
2018-11-27T22:25:39.026Z,3.20
2018-11-27T22:28:08.579Z,3.30
2018-11-27T22:30:37.173Z,3.30
2018-11-27T22:33:07.187Z,3.30
2018-11-27T22:35:35.736Z,3.30
2018-11-27T22:38:04.293Z,3.30
2018-11-27T22:40:32.813Z,3.30
2018-11-27T22:43:01.329Z,3.30
2018-11-27T22:45:34.568Z,3.30
2018-11-27T22:48:03.105Z,3.40
2018-11-27T22:50:31.781Z,3.30
2018-11-27T22:53:00.319Z,3.40
2018-11-27T22:55:28.817Z,3.40
2018-11-27T22:57:57.350Z,3.40
2018-11-27T23:00:33.155Z,3.40
2018-11-27T23:03:01.818Z,3.30
2018-11-27T23:05:30.381Z,3.30
2018-11-27T23:07:59.103Z,3.40
2018-11-27T23:10:30.125Z,3.30
2018-11-27T23:12:58.703Z,3.30
2018-11-27T23:15:27.307Z,3.30
2018-11-27T23:17:55.894Z,3.40
2018-11-27T23:20:24.518Z,3.40
2018-11-27T23:22:53.046Z,3.40
2018-11-27T23:25:21.575Z,3.30
2018-11-27T23:27:50.313Z,3.40
2018-11-27T23:30:20.386Z,3.30
2018-11-27T23:32:49.036Z,3.40
2018-11-27T23:35:17.690Z,3.40
2018-11-27T23:37:46.297Z,3.30
2018-11-27T23:40:16.278Z,3.30
2018-11-27T23:42:45.197Z,3.30
2018-11-27T23:45:15.720Z,3.40
2018-11-27T23:47:44.317Z,3.40
2018-11-27T23:50:14.292Z,3.40
2018-11-27T23:52:43.124Z,3.30
2018-11-27T23:55:12.581Z,3.30
2018-11-27T23:57:41.626Z,3.30
